<?xml version="1.0" encoding="utf-8"?>
<gpx xmlns:xsi="http://www.w3.org/2001/XMLSchema-instance" xmlns:xsd="http://www.w3.org/2001/XMLSchema" version="1.1" creator="Shapelink.com" xmlns="http://www.topografix.com/GPX/1/1" xmlns:gpxtpx="http://www.garmin.com/xmlschemas/TrackPointExtension/v1">
  <metadata>
    <name>Promenad 3.44 km, 2017-04-22</name>
    <desc></desc>
    <author><name>Morten Hedlund</name></author> 
    <time>2017-04-22T12:56:26Z</time>
  </metadata>
  <trk>
    <name>Promenad 3.44 km, 2017-04-22</name>
    <trkseg>
      <trkpt lat="59.026913250268" lon="12.224283324084">
        <ele>100.2</ele>
        <time>2017-04-22T12:56:26Z</time>
      </trkpt>
      <trkpt lat="59.02682004354" lon="12.224567973408">
        <ele>99.8</ele>
        <time>2017-04-22T12:56:40Z</time>
      </trkpt>
      <trkpt lat="59.026760280593" lon="12.22489889082">
        <ele>102.6</ele>
        <time>2017-04-22T12:56:52Z</time>
      </trkpt>
      <trkpt lat="59.02672448988" lon="12.225260402167">
        <ele>106.2</ele>
        <time>2017-04-22T12:57:06Z</time>
      </trkpt>
      <trkpt lat="59.026686184597" lon="12.225609256845">
        <ele>111.6</ele>
        <time>2017-04-22T12:57:20Z</time>
      </trkpt>
      <trkpt lat="59.026642179622" lon="12.225962051016">
        <ele>116</ele>
        <time>2017-04-22T12:57:35Z</time>
      </trkpt>
      <trkpt lat="59.026486779196" lon="12.226169000127">
        <ele>116.4</ele>
        <time>2017-04-22T12:57:46Z</time>
      </trkpt>
      <trkpt lat="59.026301706844" lon="12.226235887689">
        <ele>117.8</ele>
        <time>2017-04-22T12:57:59Z</time>
      </trkpt>
      <trkpt lat="59.026116047759" lon="12.22630956459">
        <ele>116.4</ele>
        <time>2017-04-22T12:58:14Z</time>
      </trkpt>
      <trkpt lat="59.025936088366" lon="12.226400172929">
        <ele>115.4</ele>
        <time>2017-04-22T12:58:33Z</time>
      </trkpt>
      <trkpt lat="59.02576560052" lon="12.226540988849">
        <ele>116.2</ele>
        <time>2017-04-22T12:58:45Z</time>
      </trkpt>
      <trkpt lat="59.025593017199" lon="12.226693539429">
        <ele>115.4</ele>
        <time>2017-04-22T12:58:58Z</time>
      </trkpt>
      <trkpt lat="59.025412806349" lon="12.226806946536">
        <ele>113.6</ele>
        <time>2017-04-22T12:59:12Z</time>
      </trkpt>
      <trkpt lat="59.025235696802" lon="12.226909038078">
        <ele>110.8</ele>
        <time>2017-04-22T12:59:27Z</time>
      </trkpt>
      <trkpt lat="59.025054144848" lon="12.226986738291">
        <ele>109</ele>
        <time>2017-04-22T12:59:39Z</time>
      </trkpt>
      <trkpt lat="59.024862450795" lon="12.227029234524">
        <ele>107</ele>
        <time>2017-04-22T12:59:52Z</time>
      </trkpt>
      <trkpt lat="59.024784499125" lon="12.227038370795">
        <ele>105.2</ele>
        <time>2017-04-22T12:59:58Z</time>
      </trkpt>
      <trkpt lat="59.0247111575" lon="12.227263340991">
        <ele>103.2</ele>
        <time>2017-04-22T13:00:09Z</time>
      </trkpt>
      <trkpt lat="59.024748121679" lon="12.227620409931">
        <ele>100.2</ele>
        <time>2017-04-22T13:00:25Z</time>
      </trkpt>
      <trkpt lat="59.024767986782" lon="12.227969516066">
        <ele>95.6</ele>
        <time>2017-04-22T13:00:39Z</time>
      </trkpt>
      <trkpt lat="59.024811572662" lon="12.228304875885">
        <ele>92.6</ele>
        <time>2017-04-22T13:00:53Z</time>
      </trkpt>
      <trkpt lat="59.024979294481" lon="12.228192809882">
        <ele>79.6</ele>
        <time>2017-04-22T13:01:11Z</time>
      </trkpt>
      <trkpt lat="59.024999159584" lon="12.228184930896">
        <ele>78.8</ele>
        <time>2017-04-22T13:01:13Z</time>
      </trkpt>
      <trkpt lat="59.025097143995" lon="12.228492127531">
        <ele>75.8</ele>
        <time>2017-04-22T13:01:26Z</time>
      </trkpt>
      <trkpt lat="59.02526268652" lon="12.228660855178">
        <ele>75.2</ele>
        <time>2017-04-22T13:01:40Z</time>
      </trkpt>
      <trkpt lat="59.02544541194" lon="12.22866236392">
        <ele>78</ele>
        <time>2017-04-22T13:01:53Z</time>
      </trkpt>
      <trkpt lat="59.025632244491" lon="12.228711649492">
        <ele>77.6</ele>
        <time>2017-04-22T13:02:07Z</time>
      </trkpt>
      <trkpt lat="59.025783789243" lon="12.228901667165">
        <ele>77.6</ele>
        <time>2017-04-22T13:02:20Z</time>
      </trkpt>
      <trkpt lat="59.025959641505" lon="12.228962352121">
        <ele>78.6</ele>
        <time>2017-04-22T13:02:34Z</time>
      </trkpt>
      <trkpt lat="59.026134068844" lon="12.228859925303">
        <ele>79</ele>
        <time>2017-04-22T13:02:47Z</time>
      </trkpt>
      <trkpt lat="59.026278908076" lon="12.22864643831">
        <ele>78</ele>
        <time>2017-04-22T13:03:00Z</time>
      </trkpt>
      <trkpt lat="59.026441936031" lon="12.228476704835">
        <ele>80.8</ele>
        <time>2017-04-22T13:03:14Z</time>
      </trkpt>
      <trkpt lat="59.026622985071" lon="12.228466981831">
        <ele>83.2</ele>
        <time>2017-04-22T13:03:27Z</time>
      </trkpt>
      <trkpt lat="59.026802022455" lon="12.228502604906">
        <ele>85.2</ele>
        <time>2017-04-22T13:03:38Z</time>
      </trkpt>
      <trkpt lat="59.026981143658" lon="12.228549962641">
        <ele>81.4</ele>
        <time>2017-04-22T13:03:51Z</time>
      </trkpt>
      <trkpt lat="59.027166048372" lon="12.228636296211">
        <ele>81.8</ele>
        <time>2017-04-22T13:04:05Z</time>
      </trkpt>
      <trkpt lat="59.027354305846" lon="12.228681055557">
        <ele>81.6</ele>
        <time>2017-04-22T13:04:18Z</time>
      </trkpt>
      <trkpt lat="59.027543066234" lon="12.228740483228">
        <ele>81</ele>
        <time>2017-04-22T13:04:32Z</time>
      </trkpt>
      <trkpt lat="59.027583131716" lon="12.229083470576">
        <ele>83.2</ele>
        <time>2017-04-22T13:04:44Z</time>
      </trkpt>
      <trkpt lat="59.027539713474" lon="12.229444227552">
        <ele>84.8</ele>
        <time>2017-04-22T13:04:58Z</time>
      </trkpt>
      <trkpt lat="59.027461594166" lon="12.229762572114">
        <ele>87.2</ele>
        <time>2017-04-22T13:05:11Z</time>
      </trkpt>
      <trkpt lat="59.027328070499" lon="12.230035570597">
        <ele>83.4</ele>
        <time>2017-04-22T13:05:24Z</time>
      </trkpt>
      <trkpt lat="59.027200665619" lon="12.230284345389">
        <ele>81.4</ele>
        <time>2017-04-22T13:05:36Z</time>
      </trkpt>
      <trkpt lat="59.027065381753" lon="12.230495904545">
        <ele>81.8</ele>
        <time>2017-04-22T13:06:15Z</time>
      </trkpt>
      <trkpt lat="59.027037218569" lon="12.230547034135">
        <ele>82.4</ele>
        <time>2017-04-22T13:06:19Z</time>
      </trkpt>
      <trkpt lat="59.026901934703" lon="12.230805531931">
        <ele>81.4</ele>
        <time>2017-04-22T13:06:34Z</time>
      </trkpt>
      <trkpt lat="59.026762376068" lon="12.231039722217">
        <ele>81.4</ele>
        <time>2017-04-22T13:06:48Z</time>
      </trkpt>
      <trkpt lat="59.02661636337" lon="12.231273828684">
        <ele>83</ele>
        <time>2017-04-22T13:07:02Z</time>
      </trkpt>
      <trkpt lat="59.026433721769" lon="12.231337698762">
        <ele>83.6</ele>
        <time>2017-04-22T13:07:14Z</time>
      </trkpt>
      <trkpt lat="59.026250493435" lon="12.23135379201">
        <ele>82.4</ele>
        <time>2017-04-22T13:07:28Z</time>
      </trkpt>
      <trkpt lat="59.026071791327" lon="12.231457811389">
        <ele>81.6</ele>
        <time>2017-04-22T13:07:42Z</time>
      </trkpt>
      <trkpt lat="59.025911277942" lon="12.231619665878">
        <ele>80.6</ele>
        <time>2017-04-22T13:07:55Z</time>
      </trkpt>
      <trkpt lat="59.025771635488" lon="12.231862405702">
        <ele>81.4</ele>
        <time>2017-04-22T13:08:09Z</time>
      </trkpt>
      <trkpt lat="59.025650600852" lon="12.232126770828">
        <ele>82.2</ele>
        <time>2017-04-22T13:08:23Z</time>
      </trkpt>
      <trkpt lat="59.025542809618" lon="12.232421897527">
        <ele>85.8</ele>
        <time>2017-04-22T13:08:37Z</time>
      </trkpt>
      <trkpt lat="59.025472988391" lon="12.232765387789">
        <ele>84.6</ele>
        <time>2017-04-22T13:08:52Z</time>
      </trkpt>
      <trkpt lat="59.025442645913" lon="12.233119942159">
        <ele>81.4</ele>
        <time>2017-04-22T13:09:05Z</time>
      </trkpt>
      <trkpt lat="59.025343907131" lon="12.23342328312">
        <ele>82.2</ele>
        <time>2017-04-22T13:09:18Z</time>
      </trkpt>
      <trkpt lat="59.025180795357" lon="12.233567619438">
        <ele>80.6</ele>
        <time>2017-04-22T13:09:30Z</time>
      </trkpt>
      <trkpt lat="59.024994046625" lon="12.233563344669">
        <ele>78.6</ele>
        <time>2017-04-22T13:09:43Z</time>
      </trkpt>
      <trkpt lat="59.024807381712" lon="12.233620760684">
        <ele>81.2</ele>
        <time>2017-04-22T13:09:56Z</time>
      </trkpt>
      <trkpt lat="59.024616944944" lon="12.233708100082">
        <ele>80</ele>
        <time>2017-04-22T13:10:09Z</time>
      </trkpt>
      <trkpt lat="59.02444126032" lon="12.233832152202">
        <ele>79.8</ele>
        <time>2017-04-22T13:10:23Z</time>
      </trkpt>
      <trkpt lat="59.024265827153" lon="12.233981852936">
        <ele>79.6</ele>
        <time>2017-04-22T13:10:37Z</time>
      </trkpt>
      <trkpt lat="59.024242441652" lon="12.233998030003">
        <ele>80.2</ele>
        <time>2017-04-22T13:10:39Z</time>
      </trkpt>
      <trkpt lat="59.024074300738" lon="12.234173379351">
        <ele>80.6</ele>
        <time>2017-04-22T13:10:53Z</time>
      </trkpt>
      <trkpt lat="59.023913535896" lon="12.23435702678">
        <ele>80.2</ele>
        <time>2017-04-22T13:11:06Z</time>
      </trkpt>
      <trkpt lat="59.023774396356" lon="12.234609657246">
        <ele>79.4</ele>
        <time>2017-04-22T13:11:20Z</time>
      </trkpt>
      <trkpt lat="59.023756710547" lon="12.234959601571">
        <ele>78.8</ele>
        <time>2017-04-22T13:11:33Z</time>
      </trkpt>
      <trkpt lat="59.023782275342" lon="12.235307869516">
        <ele>78.8</ele>
        <time>2017-04-22T13:11:46Z</time>
      </trkpt>
      <trkpt lat="59.02380423592" lon="12.235506772003">
        <ele>79</ele>
        <time>2017-04-22T13:11:54Z</time>
      </trkpt>
      <trkpt lat="59.02377322289" lon="12.235744398868">
        <ele>79.6</ele>
        <time>2017-04-22T13:13:11Z</time>
      </trkpt>
      <trkpt lat="59.023900879227" lon="12.235988731253">
        <ele>77.6</ele>
        <time>2017-04-22T13:13:27Z</time>
      </trkpt>
      <trkpt lat="59.023960306898" lon="12.236316798819">
        <ele>77.6</ele>
        <time>2017-04-22T13:13:39Z</time>
      </trkpt>
      <trkpt lat="59.024024093157" lon="12.236652661552">
        <ele>80.8</ele>
        <time>2017-04-22T13:13:52Z</time>
      </trkpt>
      <trkpt lat="59.024010849755" lon="12.236924067474">
        <ele>84.2</ele>
        <time>2017-04-22T13:14:03Z</time>
      </trkpt>
      <trkpt lat="59.024154012607" lon="12.236734049801">
        <ele>86.4</ele>
        <time>2017-04-22T13:14:21Z</time>
      </trkpt>
      <trkpt lat="59.024249733905" lon="12.236682920211">
        <ele>86</ele>
        <time>2017-04-22T13:14:30Z</time>
      </trkpt>
      <trkpt lat="59.024250404457" lon="12.236719800571">
        <ele>86.2</ele>
        <time>2017-04-22T13:14:32Z</time>
      </trkpt>
      <trkpt lat="59.024158035919" lon="12.237038145133">
        <ele>89.6</ele>
        <time>2017-04-22T13:14:45Z</time>
      </trkpt>
      <trkpt lat="59.024077318222" lon="12.237355819143">
        <ele>92.2</ele>
        <time>2017-04-22T13:14:58Z</time>
      </trkpt>
      <trkpt lat="59.023973215024" lon="12.237625716323">
        <ele>94.2</ele>
        <time>2017-04-22T13:15:11Z</time>
      </trkpt>
      <trkpt lat="59.023909512584" lon="12.237724287467">
        <ele>93.6</ele>
        <time>2017-04-22T13:15:17Z</time>
      </trkpt>
      <trkpt lat="59.023909764041" lon="12.237766867519">
        <ele>93.8</ele>
        <time>2017-04-22T13:15:19Z</time>
      </trkpt>
      <trkpt lat="59.024021494768" lon="12.238197697179">
        <ele>91</ele>
        <time>2017-04-22T13:15:39Z</time>
      </trkpt>
      <trkpt lat="59.024137164988" lon="12.238484022883">
        <ele>90</ele>
        <time>2017-04-22T13:15:53Z</time>
      </trkpt>
      <trkpt lat="59.02422668368" lon="12.238790632785">
        <ele>92</ele>
        <time>2017-04-22T13:16:06Z</time>
      </trkpt>
      <trkpt lat="59.024307485196" lon="12.239106881872">
        <ele>94.4</ele>
        <time>2017-04-22T13:16:19Z</time>
      </trkpt>
      <trkpt lat="59.024354423836" lon="12.239269909827">
        <ele>95.2</ele>
        <time>2017-04-22T13:16:27Z</time>
      </trkpt>
      <trkpt lat="59.024528012985" lon="12.239278962279">
        <ele>94.2</ele>
        <time>2017-04-22T13:16:47Z</time>
      </trkpt>
      <trkpt lat="59.024705373989" lon="12.239196987297">
        <ele>97</ele>
        <time>2017-04-22T13:16:59Z</time>
      </trkpt>
      <trkpt lat="59.02489053016" lon="12.23912046055">
        <ele>96.6</ele>
        <time>2017-04-22T13:17:12Z</time>
      </trkpt>
      <trkpt lat="59.025067555888" lon="12.238973022929">
        <ele>99.8</ele>
        <time>2017-04-22T13:17:26Z</time>
      </trkpt>
      <trkpt lat="59.025223962142" lon="12.238790548966">
        <ele>99.8</ele>
        <time>2017-04-22T13:17:40Z</time>
      </trkpt>
      <trkpt lat="59.025393025065" lon="12.238618803835">
        <ele>100.4</ele>
        <time>2017-04-22T13:17:54Z</time>
      </trkpt>
      <trkpt lat="59.025562087988" lon="12.238484358159">
        <ele>101.4</ele>
        <time>2017-04-22T13:18:07Z</time>
      </trkpt>
      <trkpt lat="59.025740622458" lon="12.238341446764">
        <ele>101</ele>
        <time>2017-04-22T13:18:21Z</time>
      </trkpt>
      <trkpt lat="59.025907170811" lon="12.238209683296">
        <ele>100.2</ele>
        <time>2017-04-22T13:18:34Z</time>
      </trkpt>
      <trkpt lat="59.026087297842" lon="12.238089403031">
        <ele>98.4</ele>
        <time>2017-04-22T13:18:48Z</time>
      </trkpt>
      <trkpt lat="59.026250325797" lon="12.237940456668">
        <ele>100.6</ele>
        <time>2017-04-22T13:19:01Z</time>
      </trkpt>
      <trkpt lat="59.026424082584" lon="12.237814811987">
        <ele>104.8</ele>
        <time>2017-04-22T13:19:15Z</time>
      </trkpt>
      <trkpt lat="59.026455179433" lon="12.237785391518">
        <ele>105.6</ele>
        <time>2017-04-22T13:19:18Z</time>
      </trkpt>
      <trkpt lat="59.026527179954" lon="12.237462101635">
        <ele>105.8</ele>
        <time>2017-04-22T13:19:33Z</time>
      </trkpt>
      <trkpt lat="59.026604293434" lon="12.237150043498">
        <ele>104.4</ele>
        <time>2017-04-22T13:19:47Z</time>
      </trkpt>
      <trkpt lat="59.026716024161" lon="12.236849468564">
        <ele>104.4</ele>
        <time>2017-04-22T13:20:01Z</time>
      </trkpt>
      <trkpt lat="59.026832700209" lon="12.236584516705">
        <ele>102.2</ele>
        <time>2017-04-22T13:20:15Z</time>
      </trkpt>
      <trkpt lat="59.026972342663" lon="12.236357283396">
        <ele>98.8</ele>
        <time>2017-04-22T13:20:28Z</time>
      </trkpt>
      <trkpt lat="59.027126737261" lon="12.23613650415">
        <ele>94.6</ele>
        <time>2017-04-22T13:20:42Z</time>
      </trkpt>
      <trkpt lat="59.027282053868" lon="12.235938607491">
        <ele>96.2</ele>
        <time>2017-04-22T13:20:55Z</time>
      </trkpt>
      <trkpt lat="59.027427060738" lon="12.235714643123">
        <ele>94.8</ele>
        <time>2017-04-22T13:21:08Z</time>
      </trkpt>
      <trkpt lat="59.027521692389" lon="12.235427646867">
        <ele>96.8</ele>
        <time>2017-04-22T13:21:21Z</time>
      </trkpt>
      <trkpt lat="59.027635099496" lon="12.235158587877">
        <ele>100.4</ele>
        <time>2017-04-22T13:21:33Z</time>
      </trkpt>
      <trkpt lat="59.027811873767" lon="12.23509044303">
        <ele>100</ele>
        <time>2017-04-22T13:21:45Z</time>
      </trkpt>
      <trkpt lat="59.027990911151" lon="12.235052221566">
        <ele>98.4</ele>
        <time>2017-04-22T13:21:57Z</time>
      </trkpt>
      <trkpt lat="59.028174474761" lon="12.234965217444">
        <ele>97.6</ele>
        <time>2017-04-22T13:22:10Z</time>
      </trkpt>
      <trkpt lat="59.028346219892" lon="12.234808475914">
        <ele>97.2</ele>
        <time>2017-04-22T13:22:23Z</time>
      </trkpt>
      <trkpt lat="59.028517126833" lon="12.234655338601">
        <ele>97.2</ele>
        <time>2017-04-22T13:22:36Z</time>
      </trkpt>
      <trkpt lat="59.028671521431" lon="12.234455597924">
        <ele>96.6</ele>
        <time>2017-04-22T13:22:49Z</time>
      </trkpt>
      <trkpt lat="59.028844942942" lon="12.234359038436">
        <ele>95.6</ele>
        <time>2017-04-22T13:23:02Z</time>
      </trkpt>
      <trkpt lat="59.029027333086" lon="12.234218557792">
        <ele>98.4</ele>
        <time>2017-04-22T13:23:16Z</time>
      </trkpt>
      <trkpt lat="59.029207795393" lon="12.23416424308">
        <ele>98.6</ele>
        <time>2017-04-22T13:23:28Z</time>
      </trkpt>
      <trkpt lat="59.029386916596" lon="12.234125937797">
        <ele>96.6</ele>
        <time>2017-04-22T13:23:41Z</time>
      </trkpt>
      <trkpt lat="59.029568552369" lon="12.234137756276">
        <ele>96.2</ele>
        <time>2017-04-22T13:23:53Z</time>
      </trkpt>
      <trkpt lat="59.029750607237" lon="12.234165416546">
        <ele>94</ele>
        <time>2017-04-22T13:24:05Z</time>
      </trkpt>
      <trkpt lat="59.029939116168" lon="12.234175642464">
        <ele>90.4</ele>
        <time>2017-04-22T13:24:19Z</time>
      </trkpt>
      <trkpt lat="59.030121506312" lon="12.234086794324">
        <ele>89.6</ele>
        <time>2017-04-22T13:24:32Z</time>
      </trkpt>
      <trkpt lat="59.030275146539" lon="12.233884706715">
        <ele>89.8</ele>
        <time>2017-04-22T13:24:45Z</time>
      </trkpt>
      <trkpt lat="59.030381848126" lon="12.233576336614">
        <ele>89.4</ele>
        <time>2017-04-22T13:24:58Z</time>
      </trkpt>
      <trkpt lat="59.030446724032" lon="12.233250448342">
        <ele>89.8</ele>
        <time>2017-04-22T13:25:11Z</time>
      </trkpt>
      <trkpt lat="59.030437923037" lon="12.233157995985">
        <ele>89.8</ele>
        <time>2017-04-22T13:25:15Z</time>
      </trkpt>
      <trkpt lat="59.030414453717" lon="12.233065124533">
        <ele>90</ele>
        <time>2017-04-22T13:25:19Z</time>
      </trkpt>
      <trkpt lat="59.030406993826" lon="12.232985161207">
        <ele>90.8</ele>
        <time>2017-04-22T13:25:22Z</time>
      </trkpt>
      <trkpt lat="59.03034966163" lon="12.232642425316">
        <ele>91.4</ele>
        <time>2017-04-22T13:25:36Z</time>
      </trkpt>
      <trkpt lat="59.030375561701" lon="12.232293989733">
        <ele>91.6</ele>
        <time>2017-04-22T13:25:49Z</time>
      </trkpt>
      <trkpt lat="59.030408418749" lon="12.231936836974">
        <ele>90.4</ele>
        <time>2017-04-22T13:26:04Z</time>
      </trkpt>
      <trkpt lat="59.030259472386" lon="12.231808007171">
        <ele>87.6</ele>
        <time>2017-04-22T13:26:19Z</time>
      </trkpt>
      <trkpt lat="59.030088230169" lon="12.231714716624">
        <ele>85.6</ele>
        <time>2017-04-22T13:26:32Z</time>
      </trkpt>
      <trkpt lat="59.029959735642" lon="12.231440377037">
        <ele>88.2</ele>
        <time>2017-04-22T13:26:46Z</time>
      </trkpt>
      <trkpt lat="59.029834845332" lon="12.231157823188">
        <ele>84.2</ele>
        <time>2017-04-22T13:26:59Z</time>
      </trkpt>
      <trkpt lat="59.029672068834" lon="12.231026311177">
        <ele>83.6</ele>
        <time>2017-04-22T13:27:12Z</time>
      </trkpt>
      <trkpt lat="59.029510549621" lon="12.231103005562">
        <ele>84.4</ele>
        <time>2017-04-22T13:27:30Z</time>
      </trkpt>
      <trkpt lat="59.029362692905" lon="12.231157990826">
        <ele>86.4</ele>
        <time>2017-04-22T13:27:59Z</time>
      </trkpt>
      <trkpt lat="59.029224475374" lon="12.231415398975">
        <ele>81.6</ele>
        <time>2017-04-22T13:28:16Z</time>
      </trkpt>
      <trkpt lat="59.029146439885" lon="12.231726702741">
        <ele>83.8</ele>
        <time>2017-04-22T13:28:29Z</time>
      </trkpt>
      <trkpt lat="59.02900855763" lon="12.231973717334">
        <ele>86.6</ele>
        <time>2017-04-22T13:28:42Z</time>
      </trkpt>
      <trkpt lat="59.028891043392" lon="12.232120903498">
        <ele>84.2</ele>
        <time>2017-04-22T13:28:51Z</time>
      </trkpt>
      <trkpt lat="59.028777133371" lon="12.231864333539">
        <ele>83.8</ele>
        <time>2017-04-22T13:29:02Z</time>
      </trkpt>
      <trkpt lat="59.028674203639" lon="12.231549677013">
        <ele>86.2</ele>
        <time>2017-04-22T13:29:15Z</time>
      </trkpt>
      <trkpt lat="59.028557862867" lon="12.231273409589">
        <ele>86.2</ele>
        <time>2017-04-22T13:29:28Z</time>
      </trkpt>
      <trkpt lat="59.028419980612" lon="12.2310109723">
        <ele>85.6</ele>
        <time>2017-04-22T13:29:42Z</time>
      </trkpt>
      <trkpt lat="59.028337251259" lon="12.230714336859">
        <ele>90</ele>
        <time>2017-04-22T13:30:19Z</time>
      </trkpt>
      <trkpt lat="59.028222922143" lon="12.230418288151">
        <ele>91.2</ele>
        <time>2017-04-22T13:30:37Z</time>
      </trkpt>
      <trkpt lat="59.02807816673" lon="12.23018619334">
        <ele>93.6</ele>
        <time>2017-04-22T13:30:50Z</time>
      </trkpt>
      <trkpt lat="59.027952773506" lon="12.229933227598">
        <ele>90.4</ele>
        <time>2017-04-22T13:31:05Z</time>
      </trkpt>
      <trkpt lat="59.027838192933" lon="12.229658468916">
        <ele>87</ele>
        <time>2017-04-22T13:31:19Z</time>
      </trkpt>
      <trkpt lat="59.027672315132" lon="12.229497787893">
        <ele>84.4</ele>
        <time>2017-04-22T13:31:32Z</time>
      </trkpt>
      <trkpt lat="59.027560081491" lon="12.229250438024">
        <ele>85</ele>
        <time>2017-04-22T13:31:46Z</time>
      </trkpt>
      <trkpt lat="59.027597632403" lon="12.228888256125">
        <ele>84.8</ele>
        <time>2017-04-22T13:31:58Z</time>
      </trkpt>
      <trkpt lat="59.027606098122" lon="12.228863278063">
        <ele>84.6</ele>
        <time>2017-04-22T13:31:59Z</time>
      </trkpt>
      <trkpt lat="59.027770048086" lon="12.228788595334">
        <ele>83</ele>
        <time>2017-04-22T13:32:12Z</time>
      </trkpt>
      <trkpt lat="59.027958557017" lon="12.228861685502">
        <ele>83</ele>
        <time>2017-04-22T13:32:26Z</time>
      </trkpt>
      <trkpt lat="59.028121584972" lon="12.229017840299">
        <ele>83.2</ele>
        <time>2017-04-22T13:32:39Z</time>
      </trkpt>
      <trkpt lat="59.028286792221" lon="12.229160751694">
        <ele>85.6</ele>
        <time>2017-04-22T13:32:53Z</time>
      </trkpt>
      <trkpt lat="59.028394499636" lon="12.229214898768">
        <ele>87.2</ele>
        <time>2017-04-22T13:33:02Z</time>
      </trkpt>
      <trkpt lat="59.028580661635" lon="12.229244319237">
        <ele>87.6</ele>
        <time>2017-04-22T13:33:15Z</time>
      </trkpt>
      <trkpt lat="59.028765231073" lon="12.229170474698">
        <ele>83.2</ele>
        <time>2017-04-22T13:33:27Z</time>
      </trkpt>
      <trkpt lat="59.029068404396" lon="12.228939385715">
        <ele>88</ele>
        <time>2017-04-22T13:33:55Z</time>
      </trkpt>
      <trkpt lat="59.029248615246" lon="12.228899823147">
        <ele>89.2</ele>
        <time>2017-04-22T13:34:05Z</time>
      </trkpt>
      <trkpt lat="59.029431508304" lon="12.228779878158">
        <ele>86.4</ele>
        <time>2017-04-22T13:34:17Z</time>
      </trkpt>
      <trkpt lat="59.029600152132" lon="12.228620202963">
        <ele>84.4</ele>
        <time>2017-04-22T13:34:29Z</time>
      </trkpt>
      <trkpt lat="59.029724707166" lon="12.228363381547">
        <ele>86.2</ele>
        <time>2017-04-22T13:34:42Z</time>
      </trkpt>
      <trkpt lat="59.02975370854" lon="12.228233797373">
        <ele>86.8</ele>
        <time>2017-04-22T13:34:47Z</time>
      </trkpt>
      <trkpt lat="59.029629153506" lon="12.22796918079">
        <ele>91.8</ele>
        <time>2017-04-22T13:35:03Z</time>
      </trkpt>
      <trkpt lat="59.029461683144" lon="12.227813361269">
        <ele>93.8</ele>
        <time>2017-04-22T13:35:17Z</time>
      </trkpt>
      <trkpt lat="59.029343414535" lon="12.227571375816">
        <ele>94.2</ele>
        <time>2017-04-22T13:35:31Z</time>
      </trkpt>
      <trkpt lat="59.029183990797" lon="12.227362498868">
        <ele>94</ele>
        <time>2017-04-22T13:35:44Z</time>
      </trkpt>
      <trkpt lat="59.029134118492" lon="12.22731203983">
        <ele>94</ele>
        <time>2017-04-22T13:35:49Z</time>
      </trkpt>
      <trkpt lat="59.029065386912" lon="12.227390578233">
        <ele>94.4</ele>
        <time>2017-04-22T13:35:55Z</time>
      </trkpt>
      <trkpt lat="59.029019705557" lon="12.227355709529">
        <ele>94.6</ele>
        <time>2017-04-22T13:35:59Z</time>
      </trkpt>
    </trkseg>
  </trk>
</gpx>